Time;durP1;ratioP1;P1;durP2;ratioP2;P2;SDS_P1;SDS_P2;PMS_P1;PMS_P2;Temp;Humidity;BMP_temperature;BMP_pressure;BME280_temperature;BME280_humidity;BME280_pressure;Samples;Min_cycle;Max_cycle;Signal;HPM_P1;HPM_P2
2023/12/24 00:00:24;;;;;;;1.80;0.43;;;;;;;1.77;100.00;99799.06;5095138;28;20437;-71
2023/12/24 00:02:51;;;;;;;7.73;1.00;;;;;;;1.76;100.00;99792.09;5080180;28;20429;-71
2023/12/24 00:05:17;;;;;;;1.73;0.30;;;;;;;1.75;100.00;99795.03;5088095;28;20535;-71
2023/12/24 00:07:44;;;;;;;1.80;0.47;;;;;;;1.70;100.00;99795.81;5097175;28;20467;-71
2023/12/24 00:10:11;;;;;;;1.80;0.50;;;;;;;1.67;100.00;99803.53;5094538;28;20787;-71
2023/12/24 00:12:38;;;;;;;2.30;0.67;;;;;;;1.68;100.00;99797.97;5098329;28;20507;-71
2023/12/24 00:15:07;;;;;;;1.77;0.37;;;;;;;1.66;100.00;99788.59;5100208;28;20460;-71
2023/12/24 00:17:34;;;;;;;1.77;0.40;;;;;;;1.65;100.00;99793.13;5103016;28;20431;-71
2023/12/24 00:20:01;;;;;;;1.77;0.37;;;;;;;1.67;100.00;99780.31;5096820;28;20438;-71
2023/12/24 00:22:29;;;;;;;1.70;0.30;;;;;;;1.71;100.00;99789.41;5097239;28;20468;-71
2023/12/24 00:24:56;;;;;;;1.80;0.40;;;;;;;1.70;100.00;99795.81;5095344;28;20815;-71
2023/12/24 00:27:22;;;;;;;2.40;0.90;;;;;;;1.69;100.00;99782.75;5096161;28;20509;-71
2023/12/24 00:29:49;;;;;;;1.70;0.40;;;;;;;1.69;100.00;99780.06;5094276;28;20431;-71
2023/12/24 00:32:19;;;;;;;2.53;1.23;;;;;;;1.72;100.00;99783.00;5094318;28;20545;-71
2023/12/24 00:34:45;;;;;;;2.00;0.50;;;;;;;1.73;100.00;99781.97;5095424;28;20471;-71
2023/12/24 00:37:12;;;;;;;1.70;0.40;;;;;;;1.67;100.00;99782.97;5085576;28;21018;-71
2023/12/24 00:39:39;;;;;;;1.80;0.47;;;;;;;1.74;100.00;99782.75;5090168;28;20460;-71
2023/12/24 00:42:05;;;;;;;1.70;0.30;;;;;;;1.74;100.00;99772.88;5095820;28;20521;-71
2023/12/24 00:44:33;;;;;;;2.00;0.60;;;;;;;1.74;100.00;99772.06;5096389;28;20882;-71
2023/12/24 00:46:59;;;;;;;1.90;0.60;;;;;;;1.74;100.00;99775.53;5091366;28;20997;-71
2023/12/24 00:49:29;;;;;;;1.80;0.50;;;;;;;1.79;100.00;99771.28;5094657;28;20440;-72
2023/12/24 00:51:56;;;;;;;1.70;0.30;;;;;;;1.76;100.00;99764.59;5092803;28;20480;-71
2023/12/24 00:54:23;;;;;;;1.70;0.30;;;;;;;1.79;100.00;99773.97;5091452;28;20464;-71
2023/12/24 00:56:50;;;;;;;1.80;0.40;;;;;;;1.81;100.00;99766.47;5088613;28;20463;-71
2023/12/24 00:59:16;;;;;;;1.70;0.40;;;;;;;1.84;100.00;99771.28;5092363;28;20483;-71
2023/12/24 01:01:43;;;;;;;1.90;0.60;;;;;;;1.83;100.00;99769.69;5096216;28;20527;-71
2023/12/24 01:04:09;;;;;;;2.20;0.50;;;;;;;1.81;100.00;99761.94;5092898;28;20488;-71
2023/12/24 01:06:37;;;;;;;1.70;0.40;;;;;;;1.82;100.00;99768.09;5095056;28;20440;-71
2023/12/24 01:09:04;;;;;;;1.80;0.50;;;;;;;1.76;100.00;99765.38;5095968;28;20819;-71
2023/12/24 01:11:31;;;;;;;1.80;0.40;;;;;;;1.80;100.00;99762.22;5095229;28;20515;-71
2023/12/24 01:13:57;;;;;;;2.00;0.60;;;;;;;1.77;100.00;99755.50;5083202;28;20454;-71
2023/12/24 01:16:24;;;;;;;2.23;1.00;;;;;;;1.84;100.00;99757.94;5082580;28;20520;-71
2023/12/24 01:18:51;;;;;;;1.70;0.40;;;;;;;1.77;100.00;99764.34;5080224;28;20433;-71
2023/12/24 01:21:17;;;;;;;1.70;0.30;;;;;;;1.81;100.00;99756.59;5080581;28;20433;-71
2023/12/24 01:23:45;;;;;;;1.70;0.60;;;;;;;1.81;100.00;99755.78;5093871;28;20499;-70
2023/12/24 01:26:12;;;;;;;1.70;0.40;;;;;;;1.82;100.00;99763.56;5095186;28;20831;-70
2023/12/24 01:28:38;;;;;;;1.90;0.40;;;;;;;1.86;100.00;99763.81;5094406;28;20432;-71
2023/12/24 01:31:05;;;;;;;2.87;0.93;;;;;;;1.83;100.00;99759.81;5081162;28;20533;-71
2023/12/24 01:33:32;;;;;;;1.70;0.30;;;;;;;1.68;100.00;99747.25;5076440;28;20489;-71
2023/12/24 01:35:58;;;;;;;1.70;0.40;;;;;;;1.77;100.00;99751.00;5081235;28;20445;-71
2023/12/24 01:38:25;;;;;;;2.10;0.53;;;;;;;1.78;100.00;99751.81;5094617;28;20437;-71
2023/12/24 01:40:53;;;;;;;1.70;0.40;;;;;;;1.75;100.00;99744.31;5091179;28;20432;-71
2023/12/24 01:43:19;;;;;;;1.90;0.70;;;;;;;1.80;100.00;99748.84;5095386;28;20972;-71
2023/12/24 01:45:46;;;;;;;1.80;0.50;;;;;;;1.81;100.00;99747.78;5093886;28;20532;-71
2023/12/24 01:48:15;;;;;;;2.47;0.57;;;;;;;1.83;100.00;99740.34;5102093;22;20423;-66
2023/12/24 01:50:44;;;;;;;2.13;0.60;;;;;;;1.88;100.00;99735.78;5042714;28;20457;-66
2023/12/24 01:53:12;;;;;;;1.90;0.37;;;;;;;1.86;100.00;99737.94;5038431;28;20511;-66
2023/12/24 01:55:39;;;;;;;3.13;1.03;;;;;;;1.90;100.00;99735.53;5042174;28;20481;-66
2023/12/24 01:58:08;;;;;;;1.80;0.50;;;;;;;1.95;100.00;99731.00;5036629;28;20463;-66
2023/12/24 02:00:34;;;;;;;1.70;0.40;;;;;;;1.93;100.00;99725.13;5051826;28;20794;-66
2023/12/24 02:03:01;;;;;;;1.70;0.30;;;;;;;1.92;100.00;99723.53;5034764;28;20431;-66
2023/12/24 02:05:28;;;;;;;1.80;0.50;;;;;;;1.95;100.00;99720.34;5049020;28;20466;-66
2023/12/24 02:07:56;;;;;;;2.50;1.27;;;;;;;1.97;100.00;99712.03;5039270;28;20915;-66
2023/12/24 02:10:23;;;;;;;1.70;0.40;;;;;;;1.94;100.00;99710.69;5038990;28;20513;-66
2023/12/24 02:12:50;;;;;;;1.80;0.40;;;;;;;1.98;100.00;99721.66;5040117;28;20517;-66
2023/12/24 02:15:18;;;;;;;2.20;0.40;;;;;;;1.93;100.00;99710.97;5037613;28;20455;-65
2023/12/24 02:17:45;;;;;;;1.70;0.30;;;;;;;1.97;100.00;99717.38;5046524;28;20466;-65
2023/12/24 02:20:12;;;;;;;1.70;0.30;;;;;;;1.91;100.00;99708.56;5035662;28;21006;-65
2023/12/24 02:22:40;;;;;;;1.77;0.37;;;;;;;1.86;100.00;99705.91;5037084;28;20427;-65
2023/12/24 02:25:07;;;;;;;1.70;0.40;;;;;;;1.83;100.00;99705.63;5034502;28;20546;-65
2023/12/24 02:27:41;;;;;;;1.90;0.77;;;;;;;1.86;100.00;99694.41;5047687;28;20529;-65
2023/12/24 02:30:14;;;;;;;3.30;0.77;;;;;;;1.84;100.00;99691.19;5037709;28;20525;-66
2023/12/24 02:32:44;;;;;;;1.70;0.30;;;;;;;1.80;100.00;99690.13;5042347;28;20467;-66
2023/12/24 02:35:11;;;;;;;1.80;0.43;;;;;;;1.86;100.00;99697.06;5039663;28;20549;-66
2023/12/24 02:37:40;;;;;;;1.80;0.40;;;;;;;1.90;100.00;99698.94;5046814;28;20465;-66
2023/12/24 02:40:08;;;;;;;1.70;0.30;;;;;;;1.84;100.00;99694.66;5040730;28;20431;-66
2023/12/24 02:42:35;;;;;;;2.40;0.73;;;;;;;1.82;100.00;99688.81;5035409;28;20889;-66
2023/12/24 02:45:02;;;;;;;1.80;0.53;;;;;;;1.85;100.00;99682.13;5034166;28;20455;-66
2023/12/24 02:47:28;;;;;;;1.90;0.77;;;;;;;1.89;100.00;99672.50;5037693;28;20470;-66
2023/12/24 02:49:55;;;;;;;1.70;0.30;;;;;;;1.86;100.00;99678.38;5035309;28;20443;-66
2023/12/24 02:52:21;;;;;;;2.20;0.60;;;;;;;1.87;100.00;99675.47;5034247;28;20491;-66
2023/12/24 02:54:49;;;;;;;2.63;1.07;;;;;;;1.92;100.00;99669.31;5038413;28;21163;-66
2023/12/24 02:57:16;;;;;;;2.03;0.80;;;;;;;1.89;100.00;99673.31;5041972;28;21016;-66
2023/12/24 02:59:43;;;;;;;1.73;0.37;;;;;;;1.89;100.00;99675.19;5033619;28;20466;-66
2023/12/24 03:02:09;;;;;;;1.70;0.40;;;;;;;1.88;100.00;99665.56;5041728;28;20436;-66
2023/12/24 03:04:36;;;;;;;1.70;0.30;;;;;;;1.87;100.00;99654.09;5039113;28;20994;-66
2023/12/24 03:07:02;;;;;;;1.90;0.60;;;;;;;1.86;100.00;99659.69;5038031;28;20452;-66
2023/12/24 03:09:29;;;;;;;2.30;0.50;;;;;;;1.86;100.00;99651.69;5040777;28;20834;-66
2023/12/24 03:11:57;;;;;;;1.70;0.30;;;;;;;1.85;100.00;99642.88;5046617;28;20437;-66
2023/12/24 03:14:24;;;;;;;1.70;0.30;;;;;;;1.79;100.00;99643.94;5033205;28;20562;-66
2023/12/24 03:16:50;;;;;;;1.70;0.40;;;;;;;1.76;100.00;99637.25;5037467;28;20918;-66
2023/12/24 03:19:17;;;;;;;1.70;0.40;;;;;;;1.82;100.00;99638.09;5037852;28;20438;-67
2023/12/24 03:21:44;;;;;;;2.43;1.27;;;;;;;1.90;100.00;99636.72;5035890;28;20463;-67
2023/12/24 03:24:10;;;;;;;2.07;0.77;;;;;;;1.92;100.00;99627.41;5033245;28;21050;-67
2023/12/24 03:26:37;;;;;;;1.70;0.30;;;;;;;1.98;100.00;99628.19;5033034;28;20478;-67
2023/12/24 03:29:05;;;;;;;1.70;0.30;;;;;;;2.01;100.00;99622.31;5038846;28;20819;-66
2023/12/24 03:31:32;;;;;;;1.90;0.70;;;;;;;2.04;100.00;99616.44;5039829;28;21023;-67
2023/12/24 03:33:58;;;;;;;1.70;0.40;;;;;;;2.05;100.00;99618.03;5041867;28;20488;-67
2023/12/24 03:36:25;;;;;;;1.67;0.30;;;;;;;2.10;100.00;99615.38;5021721;28;20792;-67
2023/12/24 03:38:51;;;;;;;1.70;0.30;;;;;;;2.14;100.00;99610.28;5038720;28;20515;-67
2023/12/24 03:41:18;;;;;;;2.10;0.50;;;;;;;2.15;100.00;99603.88;5034022;28;20503;-66
2023/12/24 03:43:44;;;;;;;1.70;0.30;;;;;;;2.17;100.00;99594.53;5043807;28;20454;-66
2023/12/24 03:46:12;;;;;;;1.70;0.33;;;;;;;2.17;100.00;99597.22;5044293;28;20505;-65
2023/12/24 03:48:39;;;;;;;1.70;0.40;;;;;;;2.17;100.00;99594.53;5032885;28;20457;-66
2023/12/24 03:51:06;;;;;;;3.20;1.23;;;;;;;2.21;100.00;99594.78;5036118;28;20991;-66
2023/12/24 03:53:32;;;;;;;5.10;0.70;;;;;;;2.18;100.00;99590.78;5033019;28;20485;-66
2023/12/24 03:55:59;;;;;;;1.70;0.40;;;;;;;2.19;100.00;99594.25;5033580;28;20999;-66
2023/12/24 03:58:25;;;;;;;1.80;0.40;;;;;;;2.07;100.00;99583.84;5042064;28;20527;-65
2023/12/24 04:00:52;;;;;;;2.00;0.70;;;;;;;2.05;100.00;99575.31;5037492;28;20438;-65
2023/12/24 04:03:20;;;;;;;1.70;0.30;;;;;;;2.09;100.00;99575.59;5029072;28;20854;-65
2023/12/24 04:05:46;;;;;;;1.70;0.40;;;;;;;2.06;100.00;99571.56;5033462;28;20955;-65
2023/12/24 04:08:13;;;;;;;1.70;0.30;;;;;;;2.00;100.00;99578.78;5032512;28;20439;-65
2023/12/24 04:10:40;;;;;;;1.70;0.30;;;;;;;2.08;100.00;99582.81;5033625;28;20445;-66
2023/12/24 04:13:06;;;;;;;1.70;0.40;;;;;;;2.12;100.00;99581.16;5034682;28;20890;-66
2023/12/24 04:15:33;;;;;;;1.70;0.30;;;;;;;2.14;100.00;99572.91;5041563;28;20457;-66
2023/12/24 04:18:00;;;;;;;1.80;0.50;;;;;;;2.13;100.00;99561.41;5031853;28;20459;-66
2023/12/24 04:20:28;;;;;;;1.70;0.30;;;;;;;2.20;100.00;99567.25;5037131;28;20475;-66
2023/12/24 04:22:54;;;;;;;1.70;0.30;;;;;;;2.22;100.00;99567.00;5037658;28;20860;-66
2023/12/24 04:25:21;;;;;;;1.70;0.30;;;;;;;2.23;100.00;99566.72;5046349;28;20480;-66
2023/12/24 04:27:47;;;;;;;2.37;1.13;;;;;;;2.22;100.00;99575.03;5039738;28;20431;-66
2023/12/24 04:30:14;;;;;;;1.70;0.30;;;;;;;2.25;100.00;99561.09;5043817;28;20479;-66
2023/12/24 04:32:41;;;;;;;1.70;0.30;;;;;;;2.30;100.00;99554.94;5036981;28;20439;-66
2023/12/24 04:35:09;;;;;;;1.70;0.30;;;;;;;2.27;100.00;99562.44;5037406;28;20485;-66
2023/12/24 04:37:37;;;;;;;1.70;0.30;;;;;;;2.33;100.00;99554.41;5037159;28;20526;-66
2023/12/24 04:40:04;;;;;;;1.90;0.53;;;;;;;2.33;100.00;99549.06;5035887;28;20426;-66
2023/12/24 04:42:31;;;;;;;2.10;0.40;;;;;;;2.34;100.00;99545.31;5033909;28;20454;-66
2023/12/24 04:44:58;;;;;;;1.70;0.30;;;;;;;2.41;100.00;99535.94;5041611;28;20953;-66
2023/12/24 04:47:24;;;;;;;1.70;0.50;;;;;;;2.41;100.00;99540.50;5036247;28;20471;-66
2023/12/24 04:49:51;;;;;;;1.90;0.60;;;;;;;2.38;100.00;99541.81;5038253;28;20537;-66
2023/12/24 04:52:17;;;;;;;1.70;0.30;;;;;;;2.35;100.00;99533.59;5038737;28;20467;-66
2023/12/24 04:54:45;;;;;;;2.00;0.50;;;;;;;2.38;100.00;99533.81;5041909;28;20478;-66
2023/12/24 04:57:12;;;;;;;1.73;0.37;;;;;;;2.41;100.00;99535.16;5042800;28;20458;-66
2023/12/24 04:59:38;;;;;;;2.20;0.73;;;;;;;2.44;100.00;99537.28;5040176;28;20426;-66
2023/12/24 05:02:05;;;;;;;1.70;0.30;;;;;;;2.45;100.00;99531.66;5043674;28;20850;-66
2023/12/24 05:04:32;;;;;;;1.70;0.30;;;;;;;2.44;100.00;99526.59;5037542;28;20533;-66
2023/12/24 05:06:59;;;;;;;1.70;0.30;;;;;;;2.45;100.00;99525.53;5036186;28;20442;-66
2023/12/24 05:09:26;;;;;;;1.87;0.50;;;;;;;2.45;100.00;99520.19;5044298;28;20462;-66
2023/12/24 05:11:54;;;;;;;1.80;0.50;;;;;;;2.49;100.00;99522.03;5048860;28;20500;-66
2023/12/24 05:14:21;;;;;;;2.63;1.13;;;;;;;2.55;100.00;99519.31;5042338;28;20482;-66
2023/12/24 05:16:47;;;;;;;1.70;0.37;;;;;;;2.61;100.00;99523.56;5035884;28;20439;-66
2023/12/24 05:19:13;;;;;;;4.17;0.60;;;;;;;2.62;100.00;99511.81;5036997;28;20868;-66
2023/12/24 05:21:39;;;;;;;1.70;0.40;;;;;;;2.67;100.00;99507.25;5038444;28;20466;-66
2023/12/24 05:24:06;;;;;;;1.80;0.50;;;;;;;2.73;100.00;99519.50;5041867;28;20318;-66
2023/12/24 05:26:33;;;;;;;1.80;0.50;;;;;;;2.75;100.00;99511.22;5040858;28;20433;-66
2023/12/24 05:29:01;;;;;;;1.70;0.30;;;;;;;2.79;100.00;99520.28;5041409;28;20455;-66
2023/12/24 05:31:28;;;;;;;1.70;0.30;;;;;;;2.77;100.00;99507.19;5047058;28;20460;-66
2023/12/24 05:33:54;;;;;;;2.00;0.40;;;;;;;2.82;100.00;99513.56;5036651;28;20510;-66
2023/12/24 05:36:21;;;;;;;1.80;0.40;;;;;;;2.81;100.00;99504.75;5036490;28;20435;-66
2023/12/24 05:38:48;;;;;;;1.70;0.30;;;;;;;2.87;100.00;99502.84;5040664;28;20522;-66
2023/12/24 05:41:17;;;;;;;1.70;0.30;;;;;;;2.89;100.00;99508.72;5037420;28;20443;-66
2023/12/24 05:43:43;;;;;;;1.90;0.57;;;;;;;2.89;100.00;99504.19;5034568;28;20462;-66
2023/12/24 05:46:13;;;;;;;1.70;0.30;;;;;;;2.91;100.00;99496.66;5036916;28;20514;-66
2023/12/24 05:48:40;;;;;;;1.73;0.37;;;;;;;2.87;100.00;99486.81;5035709;28;20447;-69
2023/12/24 05:51:06;;;;;;;2.63;1.50;;;;;;;2.89;100.00;99490.81;5041938;28;20481;-66
2023/12/24 05:53:33;;;;;;;1.80;0.40;;;;;;;2.87;100.00;99494.81;5035374;28;20484;-66
2023/12/24 05:56:00;;;;;;;1.70;0.30;;;;;;;2.90;100.00;99487.06;5035031;28;20431;-68
2023/12/24 05:58:26;;;;;;;1.90;0.60;;;;;;;2.96;100.00;99490.50;5035626;28;20435;-70
2023/12/24 06:00:53;;;;;;;1.90;0.67;;;;;;;2.97;100.00;99482.22;5039230;28;20466;-67
2023/12/24 06:03:21;;;;;;;1.90;0.70;;;;;;;2.98;100.00;99486.47;5035288;28;20441;-67
2023/12/24 06:05:48;;;;;;;1.90;0.60;;;;;;;3.01;100.00;99491.28;5035225;28;20459;-67
2023/12/24 06:08:15;;;;;;;1.73;0.40;;;;;;;3.03;100.00;99480.28;5037086;28;20440;-67
2023/12/24 06:10:42;;;;;;;1.87;0.53;;;;;;;3.09;100.00;99481.84;5042028;28;20439;-67
2023/12/24 06:13:09;;;;;;;1.80;0.50;;;;;;;3.14;100.00;99479.13;5035549;28;20494;-67
2023/12/24 06:15:36;;;;;;;1.70;0.30;;;;;;;3.17;100.00;99473.22;5038889;28;20537;-67
2023/12/24 06:18:02;;;;;;;2.07;0.80;;;;;;;3.21;100.00;99474.25;5040101;28;20464;-67
2023/12/24 06:20:32;;;;;;;1.93;0.50;;;;;;;3.19;100.00;99471.06;5034406;28;20467;-67
2023/12/24 06:22:58;;;;;;;1.80;0.40;;;;;;;3.22;100.00;99475.84;5038629;28;20482;-67
2023/12/24 06:25:26;;;;;;;3.23;1.07;;;;;;;3.28;100.00;99469.41;5038760;28;20447;-67
2023/12/24 06:27:52;;;;;;;1.80;0.50;;;;;;;3.39;100.00;99470.09;5046396;28;20518;-67
2023/12/24 06:30:20;;;;;;;1.80;0.47;;;;;;;3.53;100.00;99472.91;5037231;28;20466;-67
2023/12/24 06:32:47;;;;;;;1.80;0.50;;;;;;;3.83;100.00;99469.16;5035212;28;20431;-67
2023/12/24 06:35:15;;;;;;;1.80;0.50;;;;;;;4.24;100.00;99472.16;5036611;28;20490;-67
2023/12/24 06:37:43;;;;;;;1.90;0.50;;;;;;;4.58;100.00;99473.09;5040098;28;20427;-66
2023/12/24 06:40:10;;;;;;;1.80;0.40;;;;;;;4.91;100.00;99461.34;5034129;28;20459;-66
2023/12/24 06:42:37;;;;;;;1.90;0.53;;;;;;;5.19;100.00;99467.66;5041692;28;20922;-66
2023/12/24 06:45:04;;;;;;;1.80;0.40;;;;;;;5.51;100.00;99472.22;5038417;28;20458;-67
2023/12/24 06:47:31;;;;;;;1.90;0.50;;;;;;;5.80;100.00;99473.88;5036818;28;20463;-67
2023/12/24 06:49:57;;;;;;;2.13;0.53;;;;;;;5.93;100.00;99469.63;5034513;28;20534;-67
2023/12/24 06:52:24;;;;;;;1.90;0.40;;;;;;;6.18;100.00;99466.44;5033926;28;20804;-67
2023/12/24 06:54:52;;;;;;;2.10;0.40;;;;;;;6.39;100.00;99466.84;5034290;28;20498;-67
2023/12/24 06:57:19;;;;;;;1.70;0.30;;;;;;;6.63;100.00;99465.81;5035279;28;20465;-67
2023/12/24 06:59:46;;;;;;;1.70;0.30;;;;;;;6.84;100.00;99466.94;5046679;28;20853;-67
2023/12/24 07:02:12;;;;;;;1.83;0.50;;;;;;;7.03;100.00;99472.97;5035054;28;20467;-67
2023/12/24 07:04:39;;;;;;;1.70;0.30;;;;;;;7.07;100.00;99473.94;5037600;28;20466;-67
2023/12/24 07:07:06;;;;;;;1.77;0.40;;;;;;;7.13;100.00;99463.88;5034843;28;20888;-66
2023/12/24 07:09:33;;;;;;;2.00;0.70;;;;;;;7.21;100.00;99470.41;5038697;28;20442;-67
2023/12/24 07:12:01;;;;;;;1.70;0.43;;;;;;;7.38;100.00;99473.22;5037535;28;20845;-67
2023/12/24 07:14:27;;;;;;;1.80;0.50;;;;;;;7.53;100.00;99472.06;5033398;28;20573;-67
2023/12/24 07:16:54;;;;;;;1.80;0.50;;;;;;;7.53;100.00;99469.38;5037872;28;20444;-67
2023/12/24 07:19:21;;;;;;;1.80;0.40;;;;;;;7.57;100.00;99460.38;5043675;28;20952;-66
2023/12/24 07:21:47;;;;;;;1.70;0.40;;;;;;;7.62;100.00;99459.44;5044125;28;20848;-66
2023/12/24 07:24:15;;;;;;;2.20;0.50;;;;;;;7.69;100.00;99464.38;5034679;28;20538;-66
2023/12/24 07:26:42;;;;;;;2.97;0.50;;;;;;;7.67;100.00;99456.59;5039415;28;20438;-66
2023/12/24 07:29:10;;;;;;;2.00;0.70;;;;;;;7.77;100.00;99453.63;5036723;28;20875;-66
2023/12/24 07:31:36;;;;;;;1.80;0.43;;;;;;;7.82;100.00;99455.41;5042608;28;20542;-68
2023/12/24 07:34:03;;;;;;;2.47;0.70;;;;;;;7.86;100.00;99459.06;5033195;28;21078;-66
2023/12/24 07:36:29;;;;;;;1.77;0.50;;;;;;;7.85;100.00;99457.47;5039982;28;20435;-67
2023/12/24 07:38:56;;;;;;;1.80;0.60;;;;;;;7.86;100.00;99459.06;5034308;28;20522;-67
2023/12/24 07:41:26;;;;;;;2.40;0.60;;;;;;;7.89;100.00;99454.97;5036724;28;20443;-66
2023/12/24 07:43:52;;;;;;;1.90;0.53;;;;;;;7.95;100.00;99456.41;5032298;28;20459;-66
2023/12/24 07:46:21;;;;;;;3.20;1.30;;;;;;;7.95;100.00;99459.91;5038822;28;20439;-67
2023/12/24 07:48:47;;;;;;;1.80;0.50;;;;;;;7.90;100.00;99457.34;5039406;28;20454;-67
2023/12/24 07:51:14;;;;;;;1.70;0.40;;;;;;;7.91;100.00;99456.22;5039716;28;20880;-67
2023/12/24 07:53:40;;;;;;;2.40;0.80;;;;;;;7.98;100.00;99463.88;5040079;28;20470;-67
2023/12/24 07:56:07;;;;;;;2.10;0.57;;;;;;;8.04;100.00;99455.31;5039931;28;20438;-67
2023/12/24 07:58:34;;;;;;;2.67;0.90;;;;;;;8.06;100.00;99457.72;5043084;28;20434;-67
2023/12/24 08:01:01;;;;;;;2.43;0.70;;;;;;;8.09;100.00;99449.00;5045300;28;20477;-69
2023/12/24 08:03:29;;;;;;;1.70;0.40;;;;;;;8.06;100.00;99455.03;5037042;28;20799;-67
2023/12/24 08:05:55;;;;;;;2.67;0.87;;;;;;;8.11;100.00;99451.41;5052880;22;21005;-68
2023/12/24 08:08:22;;;;;;;2.13;0.60;;;;;;;8.08;100.00;99461.69;5070237;28;20525;-67
2023/12/24 08:10:48;;;;;;;1.90;0.50;;;;;;;8.18;100.00;99455.22;5072207;28;20465;-67
2023/12/24 08:13:14;;;;;;;1.90;0.60;;;;;;;8.14;100.00;99451.56;5065668;28;20945;-67
2023/12/24 08:15:41;;;;;;;1.80;0.50;;;;;;;8.17;100.00;99456.31;5063358;28;20565;-68
2023/12/24 08:18:07;;;;;;;3.80;0.80;;;;;;;8.19;100.00;99456.00;5067797;28;20200;-68
2023/12/24 08:20:35;;;;;;;1.90;0.53;;;;;;;8.19;100.00;99445.22;5063135;28;20852;-68
2023/12/24 08:23:02;;;;;;;2.20;0.60;;;;;;;8.27;100.00;99445.25;5067534;28;20536;-69
2023/12/24 08:25:28;;;;;;;1.90;0.50;;;;;;;8.28;100.00;99438.75;5065561;28;20975;-68
2023/12/24 08:27:55;;;;;;;2.30;0.80;;;;;;;8.25;100.00;99454.78;5067113;28;20457;-69
2023/12/24 08:30:22;;;;;;;5.10;1.03;;;;;;;8.34;100.00;99447.50;5076189;28;20460;-68
2023/12/24 08:32:48;;;;;;;2.10;0.60;;;;;;;8.34;100.00;99450.19;5067014;28;20438;-70
2023/12/24 08:35:15;;;;;;;2.50;0.77;;;;;;;8.32;100.00;99449.69;5069584;28;20512;-68
2023/12/24 08:37:43;;;;;;;2.63;0.63;;;;;;;8.33;100.00;99449.41;5075166;28;20516;-69
2023/12/24 08:40:10;;;;;;;2.67;0.90;;;;;;;8.33;100.00;99444.00;5071081;28;20473;-68
2023/12/24 08:42:36;;;;;;;2.33;0.83;;;;;;;8.38;100.00;99445.78;5074592;28;20461;-69
2023/12/24 08:45:04;;;;;;;2.60;0.93;;;;;;;8.31;100.00;99445.41;5067897;28;20460;-69
2023/12/24 08:47:30;;;;;;;2.43;0.83;;;;;;;8.40;100.00;99440.06;5068051;28;20462;-68
2023/12/24 08:49:57;;;;;;;2.83;0.80;;;;;;;8.43;100.00;99442.16;5073932;28;20561;-69
2023/12/24 08:52:24;;;;;;;3.27;1.23;;;;;;;8.44;100.00;99441.03;5062292;28;20440;-70
2023/12/24 08:54:53;;;;;;;2.47;1.00;;;;;;;8.50;100.00;99434.38;5070547;28;20871;-70
2023/12/24 08:57:19;;;;;;;2.93;0.97;;;;;;;8.49;100.00;99444.38;5064308;28;20513;-68
2023/12/24 08:59:46;;;;;;;2.20;0.70;;;;;;;8.58;100.00;99437.06;5060976;28;20458;-68
2023/12/24 09:02:13;;;;;;;2.13;0.70;;;;;;;8.63;100.00;99433.44;5064525;28;20504;-68
2023/12/24 09:04:39;;;;;;;2.57;0.60;;;;;;;8.61;100.00;99440.28;5073097;28;20480;-68
2023/12/24 09:07:06;;;;;;;4.40;1.10;;;;;;;8.58;100.00;99444.38;5068519;28;20478;-68
2023/12/24 09:09:32;;;;;;;2.30;0.90;;;;;;;8.58;100.00;99445.16;5061616;28;20445;-68
2023/12/24 09:12:01;;;;;;;1.80;0.50;;;;;;;8.60;100.00;99444.88;5061377;28;20517;-68
2023/12/24 09:14:27;;;;;;;2.40;0.70;;;;;;;8.69;100.00;99450.28;5069696;28;20496;-68
2023/12/24 09:16:54;;;;;;;2.80;0.83;;;;;;;8.64;100.00;99445.84;5069195;28;20435;-68
2023/12/24 09:19:20;;;;;;;1.77;0.53;;;;;;;8.71;100.00;99442.66;5058241;28;20438;-67
2023/12/24 09:21:47;;;;;;;2.90;1.10;;;;;;;8.71;100.00;99438.03;5056509;28;20461;-68
2023/12/24 09:24:14;;;;;;;2.03;0.70;;;;;;;8.67;100.00;99431.69;5072625;28;20457;-68
2023/12/24 09:26:40;;;;;;;2.67;1.07;;;;;;;8.66;100.00;99438.22;5062058;28;20933;-67
2023/12/24 09:29:08;;;;;;;2.67;1.03;;;;;;;8.68;100.00;99440.59;5067458;28;20536;-67
2023/12/24 09:31:35;;;;;;;2.43;0.70;;;;;;;8.74;100.00;99439.34;5071351;28;20444;-68
2023/12/24 09:34:02;;;;;;;2.20;0.87;;;;;;;8.76;100.00;99432.47;5068855;28;20528;-68
2023/12/24 09:36:28;;;;;;;2.40;0.83;;;;;;;8.81;100.00;99436.97;5075763;28;20481;-68
2023/12/24 09:38:55;;;;;;;3.57;1.30;;;;;;;8.77;100.00;99438.72;5075390;28;20524;-68
2023/12/24 09:41:21;;;;;;;3.23;0.97;;;;;;;8.78;100.00;99430.28;5066212;28;20433;-68
2023/12/24 09:43:48;;;;;;;3.47;1.00;;;;;;;8.77;100.00;99427.91;5064051;28;20503;-69
2023/12/24 09:46:16;;;;;;;1.90;0.70;;;;;;;8.74;100.00;99432.03;5070720;28;20467;-69
2023/12/24 09:48:43;;;;;;;2.20;0.90;;;;;;;8.87;100.00;99416.78;5074781;28;20441;-67
2023/12/24 09:51:09;;;;;;;2.30;0.77;;;;;;;8.96;100.00;99420.28;5068921;28;20462;-68
2023/12/24 09:53:36;;;;;;;2.10;0.53;;;;;;;8.93;100.00;99428.22;5067925;28;20430;-70
2023/12/24 09:56:03;;;;;;;1.63;0.47;;;;;;;8.99;100.00;99433.16;5059641;28;21096;-69
2023/12/24 09:58:30;;;;;;;2.10;0.53;;;;;;;8.99;100.00;99424.25;5070342;28;20526;-69
2023/12/24 10:00:57;;;;;;;2.03;0.60;;;;;;;8.97;100.00;99427.25;5063186;28;20520;-69
2023/12/24 10:03:25;;;;;;;1.80;0.40;;;;;;;9.05;100.00;99426.44;5065858;28;20477;-69
2023/12/24 10:06:03;;;;;;;1.93;0.63;;;;;;;9.13;100.00;99424.88;5063352;28;20440;-69
2023/12/24 10:08:29;;;;;;;1.60;0.40;;;;;;;9.12;100.00;99409.78;5069389;28;20429;-69
2023/12/24 10:10:56;;;;;;;1.60;0.40;;;;;;;9.12;100.00;99415.19;5064368;28;20488;-68
2023/12/24 10:13:23;;;;;;;1.60;0.40;;;;;;;9.15;100.00;99411.81;5072892;28;20765;-69
2023/12/24 10:16:02;;;;;;;3.30;0.80;;;;;;;9.16;100.00;99412.59;5063035;28;20517;-70
2023/12/24 10:18:30;;;;;;;2.10;0.60;;;;;;;9.25;100.00;99405.28;5057764;28;20430;-69
2023/12/24 10:21:04;;;;;;;1.83;0.57;;;;;;;9.23;100.00;99410.22;5068653;28;20440;-69
2023/12/24 10:23:30;;;;;;;1.90;0.50;;;;;;;9.22;100.00;99401.34;5075237;28;20445;-69
2023/12/24 10:26:02;;;;;;;2.43;0.47;;;;;;;9.35;100.00;99405.75;5069593;28;20422;-68
2023/12/24 10:28:28;;;;;;;2.10;0.60;;;;;;;9.34;100.00;99397.94;5068082;28;20418;-68
2023/12/24 10:31:05;;;;;;;1.77;0.60;;;;;;;9.39;100.00;99405.13;5062708;28;20465;-70
2023/12/24 10:33:33;;;;;;;1.70;0.40;;;;;;;9.37;100.00;99393.81;5071319;28;20835;-69
2023/12/24 10:36:00;;;;;;;1.80;0.50;;;;;;;9.37;100.00;99391.91;5063985;28;20536;-69
2023/12/24 10:38:28;;;;;;;1.60;0.33;;;;;;;9.39;100.00;99400.50;5067133;28;20426;-70
2023/12/24 10:40:54;;;;;;;1.80;0.50;;;;;;;9.42;100.00;99402.53;5058447;28;20454;-70
2023/12/24 10:43:21;;;;;;;1.80;0.43;;;;;;;9.46;100.00;99400.00;5060241;28;20438;-70
2023/12/24 10:45:47;;;;;;;1.60;0.37;;;;;;;9.47;100.00;99401.56;5065679;28;20441;-70
2023/12/24 10:48:14;;;;;;;1.70;0.50;;;;;;;9.48;100.00;99389.66;5062910;28;20464;-70
2023/12/24 10:50:43;;;;;;;1.87;0.60;;;;;;;9.48;100.00;99387.75;5059038;28;20445;-71
2023/12/24 10:53:10;;;;;;;1.60;0.40;;;;;;;9.52;100.00;99387.91;5055607;28;20804;-70
2023/12/24 10:55:39;;;;;;;1.70;0.40;;;;;;;9.62;100.00;99384.84;5061099;28;20516;-70
2023/12/24 10:58:15;;;;;;;2.10;0.60;;;;;;;9.59;100.00;99378.16;5065766;28;20469;-70
2023/12/24 11:00:42;;;;;;;1.60;0.40;;;;;;;9.62;100.00;99376.72;5069447;28;20509;-70
2023/12/24 11:03:10;;;;;;;1.60;0.30;;;;;;;9.69;100.00;99370.81;5062782;28;20441;-70
2023/12/24 11:05:50;;;;;;;2.00;0.50;;;;;;;9.74;100.00;99365.22;5055458;28;20462;-70
2023/12/24 11:08:30;;;;;;;1.80;0.43;;;;;;;9.68;100.00;99369.22;5071555;28;20451;-70
2023/12/24 11:10:57;;;;;;;1.70;0.40;;;;;;;9.74;100.00;99373.31;5064640;28;20422;-70
2023/12/24 11:13:52;;;;;;;2.13;0.50;;;;;;;9.69;100.00;99379.72;5063103;28;20434;-70
2023/12/24 11:16:41;;;;;;;1.60;0.30;;;;;;;9.69;100.00;99377.00;5027352;28;20487;-70
2023/12/24 11:19:07;;;;;;;1.63;0.40;;;;;;;9.68;100.00;99367.31;5064115;28;20511;-70
2023/12/24 11:22:10;;;;;;;1.70;0.40;;;;;;;9.62;100.00;99360.50;5062924;28;20937;-70
2023/12/24 11:24:42;;;;;;;1.67;0.40;;;;;;;9.65;100.00;99350.94;5072597;28;20480;-70
2023/12/24 11:27:09;;;;;;;1.70;0.50;;;;;;;9.63;100.00;99364.78;5071535;28;20479;-69
2023/12/24 11:29:46;;;;;;;1.70;0.50;;;;;;;9.59;100.00;99355.75;5057183;28;20949;-69
2023/12/24 11:32:35;;;;;;;1.60;0.30;;;;;;;9.62;100.00;99352.41;5056880;28;20427;-70
2023/12/24 11:35:02;;;;;;;1.70;0.40;;;;;;;9.63;100.00;99351.28;5056801;28;20873;-70